sensor_id;sensor_type;location;lat;lon;timestamp;P1;durP1;ratioP1;P2;durP2;ratioP2
41546;SDS011;27271;45.412;10.852;2022-08-20T00:03:44;4.05;;;2.00;;
41546;SDS011;27271;45.412;10.852;2022-08-20T00:07:45;3.97;;;2.50;;
41546;SDS011;27271;45.412;10.852;2022-08-20T00:11:08;6.43;;;2.55;;
41546;SDS011;27271;45.412;10.852;2022-08-20T00:14:53;3.97;;;2.65;;
41546;SDS011;27271;45.412;10.852;2022-08-20T00:18:19;2.58;;;2.17;;
41546;SDS011;27271;45.412;10.852;2022-08-20T00:22:06;5.90;;;2.00;;
41546;SDS011;27271;45.412;10.852;2022-08-20T00:25:49;7.25;;;2.60;;
41546;SDS011;27271;45.412;10.852;2022-08-20T00:29:48;3.00;;;2.30;;
41546;SDS011;27271;45.412;10.852;2022-08-20T00:33:16;5.03;;;2.35;;
41546;SDS011;27271;45.412;10.852;2022-08-20T00:36:58;4.68;;;3.08;;
41546;SDS011;27271;45.412;10.852;2022-08-20T00:40:25;3.25;;;2.20;;
41546;SDS011;27271;45.412;10.852;2022-08-20T00:44:14;5.77;;;2.40;;
41546;SDS011;27271;45.412;10.852;2022-08-20T00:47:40;3.92;;;1.83;;
41546;SDS011;27271;45.412;10.852;2022-08-20T00:54:59;4.38;;;2.10;;
41546;SDS011;27271;45.412;10.852;2022-08-20T00:58:26;6.90;;;2.47;;
41546;SDS011;27271;45.412;10.852;2022-08-20T01:02:17;4.15;;;2.20;;
41546;SDS011;27271;45.412;10.852;2022-08-20T01:05:47;3.90;;;2.20;;
41546;SDS011;27271;45.412;10.852;2022-08-20T01:09:13;3.88;;;1.83;;
41546;SDS011;27271;45.412;10.852;2022-08-20T01:12:36;5.82;;;2.78;;
41546;SDS011;27271;45.412;10.852;2022-08-20T01:16:47;2.67;;;1.98;;
41546;SDS011;27271;45.412;10.852;2022-08-20T01:20:10;2.97;;;1.67;;
41546;SDS011;27271;45.412;10.852;2022-08-20T01:23:59;4.97;;;1.75;;
41546;SDS011;27271;45.412;10.852;2022-08-20T01:27:43;2.92;;;2.00;;
41546;SDS011;27271;45.412;10.852;2022-08-20T01:31:12;2.65;;;2.00;;
41546;SDS011;27271;45.412;10.852;2022-08-20T01:34:37;7.07;;;2.55;;
41546;SDS011;27271;45.412;10.852;2022-08-20T01:38:10;2.60;;;2.00;;
41546;SDS011;27271;45.412;10.852;2022-08-20T01:45:23;1.80;;;1.52;;
41546;SDS011;27271;45.412;10.852;2022-08-20T01:48:52;5.22;;;1.67;;
41546;SDS011;27271;45.412;10.852;2022-08-20T02:00:32;2.22;;;1.83;;
41546;SDS011;27271;45.412;10.852;2022-08-20T02:03:56;3.42;;;2.00;;
41546;SDS011;27271;45.412;10.852;2022-08-20T02:07:18;7.35;;;1.90;;
41546;SDS011;27271;45.412;10.852;2022-08-20T02:10:45;4.43;;;2.05;;
41546;SDS011;27271;45.412;10.852;2022-08-20T02:14:09;4.25;;;2.22;;
41546;SDS011;27271;45.412;10.852;2022-08-20T02:17:31;3.92;;;2.10;;
41546;SDS011;27271;45.412;10.852;2022-08-20T02:20:53;4.10;;;1.65;;
41546;SDS011;27271;45.412;10.852;2022-08-20T02:24:15;4.90;;;2.50;;
41546;SDS011;27271;45.412;10.852;2022-08-20T02:27:40;2.38;;;1.52;;
41546;SDS011;27271;45.412;10.852;2022-08-20T02:31:04;2.33;;;2.13;;
41546;SDS011;27271;45.412;10.852;2022-08-20T02:34:28;3.72;;;2.20;;
41546;SDS011;27271;45.412;10.852;2022-08-20T02:37:51;3.65;;;2.20;;
41546;SDS011;27271;45.412;10.852;2022-08-20T02:41:15;4.43;;;2.40;;
41546;SDS011;27271;45.412;10.852;2022-08-20T02:44:38;3.00;;;1.90;;
41546;SDS011;27271;45.412;10.852;2022-08-20T02:48:38;3.78;;;2.00;;
41546;SDS011;27271;45.412;10.852;2022-08-20T02:52:00;3.53;;;2.15;;
41546;SDS011;27271;45.412;10.852;2022-08-20T02:55:33;4.53;;;2.03;;
41546;SDS011;27271;45.412;10.852;2022-08-20T02:59:07;3.88;;;2.03;;
41546;SDS011;27271;45.412;10.852;2022-08-20T03:02:30;3.55;;;1.83;;
41546;SDS011;27271;45.412;10.852;2022-08-20T03:05:55;3.75;;;2.15;;
41546;SDS011;27271;45.412;10.852;2022-08-20T03:09:20;3.38;;;1.83;;
41546;SDS011;27271;45.412;10.852;2022-08-20T03:12:51;6.30;;;2.70;;
41546;SDS011;27271;45.412;10.852;2022-08-20T03:16:31;2.90;;;1.88;;
41546;SDS011;27271;45.412;10.852;2022-08-20T03:20:06;5.82;;;1.70;;
41546;SDS011;27271;45.412;10.852;2022-08-20T03:23:29;2.92;;;1.60;;
41546;SDS011;27271;45.412;10.852;2022-08-20T03:26:53;2.78;;;1.85;;
41546;SDS011;27271;45.412;10.852;2022-08-20T03:30:15;2.55;;;1.58;;
41546;SDS011;27271;45.412;10.852;2022-08-20T03:33:38;3.10;;;1.60;;
41546;SDS011;27271;45.412;10.852;2022-08-20T03:37:15;3.25;;;1.70;;
41546;SDS011;27271;45.412;10.852;2022-08-20T03:40:41;4.63;;;2.13;;
41546;SDS011;27271;45.412;10.852;2022-08-20T03:44:04;4.28;;;1.90;;
41546;SDS011;27271;45.412;10.852;2022-08-20T03:47:27;2.00;;;1.73;;
41546;SDS011;27271;45.412;10.852;2022-08-20T03:50:57;2.42;;;1.35;;
41546;SDS011;27271;45.412;10.852;2022-08-20T03:54:24;2.85;;;1.60;;
41546;SDS011;27271;45.412;10.852;2022-08-20T03:57:53;6.55;;;1.98;;
41546;SDS011;27271;45.412;10.852;2022-08-20T04:01:41;3.47;;;1.52;;
41546;SDS011;27271;45.412;10.852;2022-08-20T04:05:23;3.10;;;1.35;;
41546;SDS011;27271;45.412;10.852;2022-08-20T04:12:53;2.42;;;1.20;;
41546;SDS011;27271;45.412;10.852;2022-08-20T04:16:18;2.83;;;1.33;;
41546;SDS011;27271;45.412;10.852;2022-08-20T04:19:57;3.30;;;1.42;;
41546;SDS011;27271;45.412;10.852;2022-08-20T04:23:23;1.20;;;1.05;;
41546;SDS011;27271;45.412;10.852;2022-08-20T04:26:47;3.20;;;1.40;;
41546;SDS011;27271;45.412;10.852;2022-08-20T04:30:13;3.00;;;1.48;;
41546;SDS011;27271;45.412;10.852;2022-08-20T04:33:36;4.05;;;1.40;;
41546;SDS011;27271;45.412;10.852;2022-08-20T04:36:59;6.38;;;2.17;;
41546;SDS011;27271;45.412;10.852;2022-08-20T04:40:21;4.20;;;2.08;;
41546;SDS011;27271;45.412;10.852;2022-08-20T04:44:14;2.08;;;1.42;;
41546;SDS011;27271;45.412;10.852;2022-08-20T04:48:12;3.05;;;1.65;;
41546;SDS011;27271;45.412;10.852;2022-08-20T04:51:35;1.63;;;1.08;;
41546;SDS011;27271;45.412;10.852;2022-08-20T04:55:01;9.18;;;2.22;;
41546;SDS011;27271;45.412;10.852;2022-08-20T04:58:34;3.38;;;1.10;;
41546;SDS011;27271;45.412;10.852;2022-08-20T05:02:09;1.95;;;1.25;;
41546;SDS011;27271;45.412;10.852;2022-08-20T05:05:37;4.93;;;1.00;;
41546;SDS011;27271;45.412;10.852;2022-08-20T05:08:59;1.65;;;1.10;;
41546;SDS011;27271;45.412;10.852;2022-08-20T05:12:21;0.80;;;0.80;;
41546;SDS011;27271;45.412;10.852;2022-08-20T05:15:43;2.97;;;0.90;;
41546;SDS011;27271;45.412;10.852;2022-08-20T05:19:10;1.33;;;0.80;;
41546;SDS011;27271;45.412;10.852;2022-08-20T05:22:33;2.65;;;1.10;;
41546;SDS011;27271;45.412;10.852;2022-08-20T05:29:46;1.30;;;1.00;;
41546;SDS011;27271;45.412;10.852;2022-08-20T05:33:10;1.02;;;0.95;;
41546;SDS011;27271;45.412;10.852;2022-08-20T05:36:35;0.98;;;0.80;;
41546;SDS011;27271;45.412;10.852;2022-08-20T05:40:10;2.10;;;1.52;;
41546;SDS011;27271;45.412;10.852;2022-08-20T05:44:02;2.92;;;1.02;;
41546;SDS011;27271;45.412;10.852;2022-08-20T05:51:53;1.30;;;1.00;;
41546;SDS011;27271;45.412;10.852;2022-08-20T05:59:10;1.20;;;1.00;;
41546;SDS011;27271;45.412;10.852;2022-08-20T06:02:34;2.60;;;1.35;;
41546;SDS011;27271;45.412;10.852;2022-08-20T06:06:21;3.30;;;1.50;;
41546;SDS011;27271;45.412;10.852;2022-08-20T06:10:09;1.30;;;1.20;;
41546;SDS011;27271;45.412;10.852;2022-08-20T06:13:34;2.38;;;1.10;;
41546;SDS011;27271;45.412;10.852;2022-08-20T06:17:10;1.50;;;0.73;;
41546;SDS011;27271;45.412;10.852;2022-08-20T06:20:43;1.20;;;1.10;;
41546;SDS011;27271;45.412;10.852;2022-08-20T06:24:22;1.13;;;0.70;;
41546;SDS011;27271;45.412;10.852;2022-08-20T06:28:52;1.55;;;0.90;;
41546;SDS011;27271;45.412;10.852;2022-08-20T06:37:00;2.42;;;1.00;;
41546;SDS011;27271;45.412;10.852;2022-08-20T06:41:20;4.68;;;2.83;;
41546;SDS011;27271;45.412;10.852;2022-08-20T06:45:19;3.65;;;1.85;;
41546;SDS011;27271;45.412;10.852;2022-08-20T06:48:48;2.78;;;1.30;;
41546;SDS011;27271;45.412;10.852;2022-08-20T06:52:15;1.85;;;1.05;;
41546;SDS011;27271;45.412;10.852;2022-08-20T06:56:02;9.25;;;6.15;;
41546;SDS011;27271;45.412;10.852;2022-08-20T06:59:26;16.35;;;11.70;;
41546;SDS011;27271;45.412;10.852;2022-08-20T07:02:59;3.58;;;1.90;;
41546;SDS011;27271;45.412;10.852;2022-08-20T07:06:22;2.40;;;0.98;;
41546;SDS011;27271;45.412;10.852;2022-08-20T07:10:06;1.80;;;1.23;;
41546;SDS011;27271;45.412;10.852;2022-08-20T07:13:38;3.00;;;1.63;;
41546;SDS011;27271;45.412;10.852;2022-08-20T07:17:09;3.22;;;1.38;;
41546;SDS011;27271;45.412;10.852;2022-08-20T07:20:34;0.88;;;0.80;;
41546;SDS011;27271;45.412;10.852;2022-08-20T07:24:01;1.80;;;1.00;;
41546;SDS011;27271;45.412;10.852;2022-08-20T07:27:26;1.77;;;1.05;;
41546;SDS011;27271;45.412;10.852;2022-08-20T07:31:03;1.75;;;1.00;;
41546;SDS011;27271;45.412;10.852;2022-08-20T07:34:44;1.30;;;1.13;;
41546;SDS011;27271;45.412;10.852;2022-08-20T07:38:19;1.27;;;0.95;;
41546;SDS011;27271;45.412;10.852;2022-08-20T07:41:44;1.20;;;0.80;;
41546;SDS011;27271;45.412;10.852;2022-08-20T07:45:25;1.60;;;1.08;;
41546;SDS011;27271;45.412;10.852;2022-08-20T07:48:48;0.85;;;0.85;;
41546;SDS011;27271;45.412;10.852;2022-08-20T07:52:34;0.90;;;0.82;;
41546;SDS011;27271;45.412;10.852;2022-08-20T08:01:17;2.78;;;1.00;;
41546;SDS011;27271;45.412;10.852;2022-08-20T08:04:46;4.55;;;1.08;;
41546;SDS011;27271;45.412;10.852;2022-08-20T08:08:09;1.40;;;0.80;;
41546;SDS011;27271;45.412;10.852;2022-08-20T08:11:34;2.08;;;0.80;;
41546;SDS011;27271;45.412;10.852;2022-08-20T08:14:58;1.85;;;0.95;;
41546;SDS011;27271;45.412;10.852;2022-08-20T08:18:21;2.92;;;0.73;;
41546;SDS011;27271;45.412;10.852;2022-08-20T08:21:52;1.35;;;0.82;;
41546;SDS011;27271;45.412;10.852;2022-08-20T08:25:18;1.08;;;0.60;;
41546;SDS011;27271;45.412;10.852;2022-08-20T08:28:45;2.65;;;0.95;;
41546;SDS011;27271;45.412;10.852;2022-08-20T08:32:16;2.15;;;0.80;;
41546;SDS011;27271;45.412;10.852;2022-08-20T08:36:48;1.38;;;0.73;;
41546;SDS011;27271;45.412;10.852;2022-08-20T08:40:16;0.95;;;0.65;;
41546;SDS011;27271;45.412;10.852;2022-08-20T08:43:38;0.95;;;0.70;;
41546;SDS011;27271;45.412;10.852;2022-08-20T08:47:12;1.98;;;0.70;;
41546;SDS011;27271;45.412;10.852;2022-08-20T08:50:48;0.98;;;0.60;;
41546;SDS011;27271;45.412;10.852;2022-08-20T08:54:19;1.15;;;0.65;;
41546;SDS011;27271;45.412;10.852;2022-08-20T08:57:43;1.70;;;0.70;;
41546;SDS011;27271;45.412;10.852;2022-08-20T09:01:12;0.98;;;0.52;;
41546;SDS011;27271;45.412;10.852;2022-08-20T09:04:58;0.70;;;0.68;;
41546;SDS011;27271;45.412;10.852;2022-08-20T09:08:24;1.90;;;0.80;;
41546;SDS011;27271;45.412;10.852;2022-08-20T09:11:52;0.82;;;0.60;;
41546;SDS011;27271;45.412;10.852;2022-08-20T09:15:18;0.98;;;0.70;;
41546;SDS011;27271;45.412;10.852;2022-08-20T09:18:42;1.77;;;0.75;;
41546;SDS011;27271;45.412;10.852;2022-08-20T09:22:23;1.20;;;0.82;;
41546;SDS011;27271;45.412;10.852;2022-08-20T09:31:31;0.85;;;0.70;;
41546;SDS011;27271;45.412;10.852;2022-08-20T09:35:50;1.60;;;1.33;;
41546;SDS011;27271;45.412;10.852;2022-08-20T09:40:33;0.60;;;0.60;;
41546;SDS011;27271;45.412;10.852;2022-08-20T09:43:57;0.73;;;0.73;;
41546;SDS011;27271;45.412;10.852;2022-08-20T09:47:19;0.73;;;0.50;;
41546;SDS011;27271;45.412;10.852;2022-08-20T09:50:47;0.50;;;0.50;;
41546;SDS011;27271;45.412;10.852;2022-08-20T09:54:18;3.10;;;0.80;;
41546;SDS011;27271;45.412;10.852;2022-08-20T09:57:41;1.33;;;0.80;;
41546;SDS011;27271;45.412;10.852;2022-08-20T10:01:08;1.35;;;1.05;;
41546;SDS011;27271;45.412;10.852;2022-08-20T10:04:35;1.20;;;0.85;;
41546;SDS011;27271;45.412;10.852;2022-08-20T10:07:57;0.70;;;0.70;;
41546;SDS011;27271;45.412;10.852;2022-08-20T10:11:19;2.35;;;0.60;;
41546;SDS011;27271;45.412;10.852;2022-08-20T10:14:44;0.68;;;0.68;;
41546;SDS011;27271;45.412;10.852;2022-08-20T10:18:06;0.55;;;0.52;;
41546;SDS011;27271;45.412;10.852;2022-08-20T10:21:28;2.17;;;1.17;;
41546;SDS011;27271;45.412;10.852;2022-08-20T10:24:58;0.60;;;0.60;;
41546;SDS011;27271;45.412;10.852;2022-08-20T10:28:21;0.63;;;0.60;;
41546;SDS011;27271;45.412;10.852;2022-08-20T10:31:43;0.80;;;0.60;;
41546;SDS011;27271;45.412;10.852;2022-08-20T10:35:29;1.85;;;0.98;;
41546;SDS011;27271;45.412;10.852;2022-08-20T10:38:51;0.63;;;0.63;;
41546;SDS011;27271;45.412;10.852;2022-08-20T10:43:06;1.63;;;0.68;;
41546;SDS011;27271;45.412;10.852;2022-08-20T10:46:47;0.60;;;0.60;;
41546;SDS011;27271;45.412;10.852;2022-08-20T10:50:18;0.85;;;0.63;;
41546;SDS011;27271;45.412;10.852;2022-08-20T10:54:33;0.68;;;0.63;;
41546;SDS011;27271;45.412;10.852;2022-08-20T10:57:55;0.63;;;0.63;;
41546;SDS011;27271;45.412;10.852;2022-08-20T11:01:21;0.60;;;0.60;;
41546;SDS011;27271;45.412;10.852;2022-08-20T11:04:54;1.90;;;0.70;;
41546;SDS011;27271;45.412;10.852;2022-08-20T11:08:16;0.70;;;0.68;;
41546;SDS011;27271;45.412;10.852;2022-08-20T11:11:55;1.33;;;0.77;;
41546;SDS011;27271;45.412;10.852;2022-08-20T11:15:17;4.55;;;0.60;;
41546;SDS011;27271;45.412;10.852;2022-08-20T11:18:39;1.02;;;0.93;;
41546;SDS011;27271;45.412;10.852;2022-08-20T11:22:10;0.52;;;0.52;;
41546;SDS011;27271;45.412;10.852;2022-08-20T11:26:16;0.73;;;0.55;;
41546;SDS011;27271;45.412;10.852;2022-08-20T11:29:42;0.73;;;0.63;;
41546;SDS011;27271;45.412;10.852;2022-08-20T11:33:05;0.68;;;0.68;;
41546;SDS011;27271;45.412;10.852;2022-08-20T11:36:27;1.38;;;0.77;;
41546;SDS011;27271;45.412;10.852;2022-08-20T11:39:50;0.55;;;0.55;;
41546;SDS011;27271;45.412;10.852;2022-08-20T11:43:15;0.68;;;0.65;;
41546;SDS011;27271;45.412;10.852;2022-08-20T11:46:40;0.60;;;0.60;;
41546;SDS011;27271;45.412;10.852;2022-08-20T11:50:04;0.60;;;0.60;;
41546;SDS011;27271;45.412;10.852;2022-08-20T11:53:27;0.95;;;0.70;;
41546;SDS011;27271;45.412;10.852;2022-08-20T11:56:51;0.50;;;0.50;;
41546;SDS011;27271;45.412;10.852;2022-08-20T12:00:15;0.88;;;0.82;;
41546;SDS011;27271;45.412;10.852;2022-08-20T12:03:52;2.40;;;0.90;;
41546;SDS011;27271;45.412;10.852;2022-08-20T12:07:15;1.00;;;0.70;;
41546;SDS011;27271;45.412;10.852;2022-08-20T12:10:40;0.50;;;0.50;;
41546;SDS011;27271;45.412;10.852;2022-08-20T12:14:02;1.00;;;0.70;;
41546;SDS011;27271;45.412;10.852;2022-08-20T12:17:26;0.63;;;0.50;;
41546;SDS011;27271;45.412;10.852;2022-08-20T12:20:53;0.95;;;0.77;;
41546;SDS011;27271;45.412;10.852;2022-08-20T12:24:15;0.82;;;0.82;;
41546;SDS011;27271;45.412;10.852;2022-08-20T12:27:38;0.68;;;0.68;;
41546;SDS011;27271;45.412;10.852;2022-08-20T12:31:01;0.77;;;0.70;;
41546;SDS011;27271;45.412;10.852;2022-08-20T12:34:24;0.70;;;0.70;;
41546;SDS011;27271;45.412;10.852;2022-08-20T12:37:46;0.52;;;0.50;;
41546;SDS011;27271;45.412;10.852;2022-08-20T12:41:09;0.68;;;0.63;;
41546;SDS011;27271;45.412;10.852;2022-08-20T12:44:37;1.05;;;0.60;;
41546;SDS011;27271;45.412;10.852;2022-08-20T12:48:09;0.50;;;0.50;;
41546;SDS011;27271;45.412;10.852;2022-08-20T12:51:33;1.92;;;0.68;;
41546;SDS011;27271;45.412;10.852;2022-08-20T12:54:59;0.45;;;0.45;;
41546;SDS011;27271;45.412;10.852;2022-08-20T12:59:08;0.52;;;0.50;;
41546;SDS011;27271;45.412;10.852;2022-08-20T13:02:53;0.73;;;0.70;;
41546;SDS011;27271;45.412;10.852;2022-08-20T13:06:28;0.50;;;0.50;;
41546;SDS011;27271;45.412;10.852;2022-08-20T13:10:06;0.60;;;0.60;;
41546;SDS011;27271;45.412;10.852;2022-08-20T13:14:11;0.30;;;0.30;;
41546;SDS011;27271;45.412;10.852;2022-08-20T13:17:52;0.70;;;0.50;;
41546;SDS011;27271;45.412;10.852;2022-08-20T13:21:15;1.35;;;0.47;;
41546;SDS011;27271;45.412;10.852;2022-08-20T13:24:43;0.40;;;0.40;;
41546;SDS011;27271;45.412;10.852;2022-08-20T13:28:05;1.27;;;0.47;;
41546;SDS011;27271;45.412;10.852;2022-08-20T13:31:28;0.50;;;0.50;;
41546;SDS011;27271;45.412;10.852;2022-08-20T13:34:50;0.50;;;0.50;;
41546;SDS011;27271;45.412;10.852;2022-08-20T13:38:12;0.40;;;0.40;;
41546;SDS011;27271;45.412;10.852;2022-08-20T13:41:41;0.38;;;0.38;;
41546;SDS011;27271;45.412;10.852;2022-08-20T13:45:04;0.60;;;0.50;;
41546;SDS011;27271;45.412;10.852;2022-08-20T13:48:27;0.52;;;0.47;;
41546;SDS011;27271;45.412;10.852;2022-08-20T13:52:09;0.63;;;0.40;;
41546;SDS011;27271;45.412;10.852;2022-08-20T14:00:36;1.45;;;0.60;;
41546;SDS011;27271;45.412;10.852;2022-08-20T14:04:09;0.55;;;0.55;;
41546;SDS011;27271;45.412;10.852;2022-08-20T14:07:41;0.55;;;0.55;;
41546;SDS011;27271;45.412;10.852;2022-08-20T14:11:46;0.40;;;0.40;;
41546;SDS011;27271;45.412;10.852;2022-08-20T14:16:00;0.45;;;0.45;;
41546;SDS011;27271;45.412;10.852;2022-08-20T14:20:12;0.40;;;0.40;;
41546;SDS011;27271;45.412;10.852;2022-08-20T14:23:50;0.90;;;0.63;;
41546;SDS011;27271;45.412;10.852;2022-08-20T14:27:42;0.45;;;0.45;;
41546;SDS011;27271;45.412;10.852;2022-08-20T14:35:12;0.80;;;0.60;;
41546;SDS011;27271;45.412;10.852;2022-08-20T14:38:58;0.52;;;0.52;;
41546;SDS011;27271;45.412;10.852;2022-08-20T14:43:05;0.85;;;0.68;;
41546;SDS011;27271;45.412;10.852;2022-08-20T14:46:33;0.65;;;0.60;;
41546;SDS011;27271;45.412;10.852;2022-08-20T14:50:18;0.55;;;0.52;;
41546;SDS011;27271;45.412;10.852;2022-08-20T14:53:47;0.70;;;0.70;;
41546;SDS011;27271;45.412;10.852;2022-08-20T14:57:16;1.25;;;0.80;;
41546;SDS011;27271;45.412;10.852;2022-08-20T15:01:08;1.85;;;0.90;;
41546;SDS011;27271;45.412;10.852;2022-08-20T15:04:38;1.05;;;0.60;;
41546;SDS011;27271;45.412;10.852;2022-08-20T15:08:45;1.27;;;0.77;;
41546;SDS011;27271;45.412;10.852;2022-08-20T15:12:21;1.10;;;0.60;;
41546;SDS011;27271;45.412;10.852;2022-08-20T15:15:47;1.35;;;0.82;;
41546;SDS011;27271;45.412;10.852;2022-08-20T15:19:21;1.95;;;0.70;;
41546;SDS011;27271;45.412;10.852;2022-08-20T15:23:23;4.43;;;0.80;;
41546;SDS011;27271;45.412;10.852;2022-08-20T15:26:45;7.38;;;1.02;;
41546;SDS011;27271;45.412;10.852;2022-08-20T15:30:17;1.63;;;0.70;;
41546;SDS011;27271;45.412;10.852;2022-08-20T15:33:45;0.80;;;0.80;;
41546;SDS011;27271;45.412;10.852;2022-08-20T15:37:22;0.98;;;0.80;;
41546;SDS011;27271;45.412;10.852;2022-08-20T15:41:02;26.27;;;9.75;;
41546;SDS011;27271;45.412;10.852;2022-08-20T15:44:49;67.50;;;23.10;;
41546;SDS011;27271;45.412;10.852;2022-08-20T15:48:39;33.03;;;10.52;;
41546;SDS011;27271;45.412;10.852;2022-08-20T15:52:11;5.53;;;0.98;;
41546;SDS011;27271;45.412;10.852;2022-08-20T15:55:43;0.77;;;0.70;;
41546;SDS011;27271;45.412;10.852;2022-08-20T16:15:09;0.60;;;0.60;;
41546;SDS011;27271;45.412;10.852;2022-08-20T16:18:50;0.70;;;0.70;;
41546;SDS011;27271;45.412;10.852;2022-08-20T16:22:18;0.57;;;0.50;;
41546;SDS011;27271;45.412;10.852;2022-08-20T16:29:43;0.70;;;0.57;;
41546;SDS011;27271;45.412;10.852;2022-08-20T16:33:36;0.77;;;0.77;;
41546;SDS011;27271;45.412;10.852;2022-08-20T16:37:16;0.70;;;0.60;;
41546;SDS011;27271;45.412;10.852;2022-08-20T16:40:50;0.57;;;0.50;;
41546;SDS011;27271;45.412;10.852;2022-08-20T16:44:35;0.70;;;0.60;;
41546;SDS011;27271;45.412;10.852;2022-08-20T16:48:13;0.80;;;0.80;;
41546;SDS011;27271;45.412;10.852;2022-08-20T16:55:18;0.82;;;0.80;;
41546;SDS011;27271;45.412;10.852;2022-08-20T16:59:05;0.85;;;0.60;;
41546;SDS011;27271;45.412;10.852;2022-08-20T17:03:04;0.70;;;0.52;;
41546;SDS011;27271;45.412;10.852;2022-08-20T17:06:42;0.68;;;0.60;;
41546;SDS011;27271;45.412;10.852;2022-08-20T17:10:16;0.82;;;0.50;;
41546;SDS011;27271;45.412;10.852;2022-08-20T17:14:00;0.63;;;0.60;;
41546;SDS011;27271;45.412;10.852;2022-08-20T17:18:15;3.67;;;0.60;;
41546;SDS011;27271;45.412;10.852;2022-08-20T17:22:10;0.70;;;0.50;;
41546;SDS011;27271;45.412;10.852;2022-08-20T17:30:24;1.75;;;1.13;;
41546;SDS011;27271;45.412;10.852;2022-08-20T17:34:00;4.18;;;1.77;;
41546;SDS011;27271;45.412;10.852;2022-08-20T17:37:29;7.00;;;4.68;;
41546;SDS011;27271;45.412;10.852;2022-08-20T17:41:29;8.73;;;6.03;;
41546;SDS011;27271;45.412;10.852;2022-08-20T17:45:07;4.97;;;3.70;;
41546;SDS011;27271;45.412;10.852;2022-08-20T17:48:48;5.22;;;2.40;;
41546;SDS011;27271;45.412;10.852;2022-08-20T17:52:15;2.37;;;2.10;;
41546;SDS011;27271;45.412;10.852;2022-08-20T17:56:23;3.30;;;2.65;;
41546;SDS011;27271;45.412;10.852;2022-08-20T18:00:10;7.53;;;3.33;;
41546;SDS011;27271;45.412;10.852;2022-08-20T18:03:40;4.65;;;2.08;;
41546;SDS011;27271;45.412;10.852;2022-08-20T18:15:19;16.88;;;8.90;;
41546;SDS011;27271;45.412;10.852;2022-08-20T18:19:01;38.92;;;22.65;;
41546;SDS011;27271;45.412;10.852;2022-08-20T18:23:05;68.90;;;38.10;;
41546;SDS011;27271;45.412;10.852;2022-08-20T18:26:55;31.67;;;18.35;;
41546;SDS011;27271;45.412;10.852;2022-08-20T18:30:45;5.18;;;3.17;;
41546;SDS011;27271;45.412;10.852;2022-08-20T18:34:39;3.28;;;2.05;;
41546;SDS011;27271;45.412;10.852;2022-08-20T18:53:45;2.33;;;1.70;;
41546;SDS011;27271;45.412;10.852;2022-08-20T18:57:38;9.30;;;4.28;;
41546;SDS011;27271;45.412;10.852;2022-08-20T19:01:12;53.40;;;26.10;;
41546;SDS011;27271;45.412;10.852;2022-08-20T19:04:35;60.90;;;30.23;;
41546;SDS011;27271;45.412;10.852;2022-08-20T19:07:59;30.15;;;15.45;;
41546;SDS011;27271;45.412;10.852;2022-08-20T19:11:43;11.63;;;5.70;;
41546;SDS011;27271;45.412;10.852;2022-08-20T19:20:51;1.33;;;1.05;;
41546;SDS011;27271;45.412;10.852;2022-08-20T19:28:53;1.85;;;1.25;;
41546;SDS011;27271;45.412;10.852;2022-08-20T19:32:21;1.65;;;1.02;;
41546;SDS011;27271;45.412;10.852;2022-08-20T19:35:54;1.50;;;1.40;;
41546;SDS011;27271;45.412;10.852;2022-08-20T19:39:28;2.33;;;1.40;;
41546;SDS011;27271;45.412;10.852;2022-08-20T19:42:58;1.67;;;1.17;;
41546;SDS011;27271;45.412;10.852;2022-08-20T19:46:30;1.65;;;1.52;;
41546;SDS011;27271;45.412;10.852;2022-08-20T19:50:10;2.30;;;1.52;;
41546;SDS011;27271;45.412;10.852;2022-08-20T19:57:22;1.48;;;1.33;;
41546;SDS011;27271;45.412;10.852;2022-08-20T20:00:59;2.28;;;1.60;;
41546;SDS011;27271;45.412;10.852;2022-08-20T20:04:26;3.63;;;2.20;;
41546;SDS011;27271;45.412;10.852;2022-08-20T20:08:19;3.13;;;2.10;;
41546;SDS011;27271;45.412;10.852;2022-08-20T20:11:51;2.55;;;1.58;;
41546;SDS011;27271;45.412;10.852;2022-08-20T20:15:26;1.63;;;1.33;;
41546;SDS011;27271;45.412;10.852;2022-08-20T20:18:54;2.08;;;1.75;;
41546;SDS011;27271;45.412;10.852;2022-08-20T20:22:47;5.70;;;1.77;;
41546;SDS011;27271;45.412;10.852;2022-08-20T20:26:49;3.38;;;1.67;;
41546;SDS011;27271;45.412;10.852;2022-08-20T20:35:27;2.67;;;1.70;;
41546;SDS011;27271;45.412;10.852;2022-08-20T20:39:22;2.53;;;1.80;;
41546;SDS011;27271;45.412;10.852;2022-08-20T20:43:43;2.75;;;1.48;;
41546;SDS011;27271;45.412;10.852;2022-08-20T21:01:56;2.28;;;1.55;;
41546;SDS011;27271;45.412;10.852;2022-08-20T21:06:01;2.38;;;1.35;;
41546;SDS011;27271;45.412;10.852;2022-08-20T21:10:25;2.13;;;1.33;;
41546;SDS011;27271;45.412;10.852;2022-08-20T21:14:43;2.05;;;1.30;;
41546;SDS011;27271;45.412;10.852;2022-08-20T21:18:34;2.10;;;1.42;;
41546;SDS011;27271;45.412;10.852;2022-08-20T21:22:34;1.38;;;1.15;;
41546;SDS011;27271;45.412;10.852;2022-08-20T21:27:12;2.43;;;1.40;;
41546;SDS011;27271;45.412;10.852;2022-08-20T21:35:28;3.25;;;1.60;;
41546;SDS011;27271;45.412;10.852;2022-08-20T21:39:46;2.35;;;1.80;;
41546;SDS011;27271;45.412;10.852;2022-08-20T21:43:23;2.53;;;1.60;;
41546;SDS011;27271;45.412;10.852;2022-08-20T21:46:53;2.60;;;1.60;;
41546;SDS011;27271;45.412;10.852;2022-08-20T21:54:23;1.63;;;1.52;;
41546;SDS011;27271;45.412;10.852;2022-08-20T21:58:49;1.73;;;1.50;;
41546;SDS011;27271;45.412;10.852;2022-08-20T22:02:15;2.47;;;1.42;;
41546;SDS011;27271;45.412;10.852;2022-08-20T22:05:38;1.98;;;1.77;;
41546;SDS011;27271;45.412;10.852;2022-08-20T22:09:46;2.33;;;1.80;;
41546;SDS011;27271;45.412;10.852;2022-08-20T22:13:08;4.30;;;1.60;;
41546;SDS011;27271;45.412;10.852;2022-08-20T22:17:18;2.17;;;1.50;;
41546;SDS011;27271;45.412;10.852;2022-08-20T22:29:57;2.20;;;1.20;;
41546;SDS011;27271;45.412;10.852;2022-08-20T22:34:35;2.35;;;1.65;;
41546;SDS011;27271;45.412;10.852;2022-08-20T22:39:22;3.03;;;1.70;;
41546;SDS011;27271;45.412;10.852;2022-08-20T22:43:14;3.25;;;1.67;;
41546;SDS011;27271;45.412;10.852;2022-08-20T22:57:04;2.40;;;1.42;;
41546;SDS011;27271;45.412;10.852;2022-08-20T23:01:42;2.70;;;1.50;;
41546;SDS011;27271;45.412;10.852;2022-08-20T23:06:07;2.17;;;1.60;;
41546;SDS011;27271;45.412;10.852;2022-08-20T23:09:59;3.33;;;1.80;;
41546;SDS011;27271;45.412;10.852;2022-08-20T23:18:13;2.53;;;1.60;;
41546;SDS011;27271;45.412;10.852;2022-08-20T23:22:22;1.88;;;1.70;;
41546;SDS011;27271;45.412;10.852;2022-08-20T23:30:53;3.25;;;1.48;;
41546;SDS011;27271;45.412;10.852;2022-08-20T23:35:00;3.05;;;1.63;;
41546;SDS011;27271;45.412;10.852;2022-08-20T23:39:12;3.33;;;1.73;;
41546;SDS011;27271;45.412;10.852;2022-08-20T23:43:08;2.55;;;1.38;;
41546;SDS011;27271;45.412;10.852;2022-08-20T23:46:59;2.50;;;1.27;;
41546;SDS011;27271;45.412;10.852;2022-08-20T23:51:14;1.83;;;1.38;;
41546;SDS011;27271;45.412;10.852;2022-08-20T23:55:57;1.95;;;1.38;;
